Time;durP1;ratioP1;P1;durP2;ratioP2;P2;SDS_P1;SDS_P2;PMS_P1;PMS_P2;Temp;Humidity;BMP_temperature;BMP_pressure;BME280_temperature;BME280_humidity;BME280_pressure;Samples;Min_cycle;Max_cycle;Signal;HPM_P1;HPM_P2
2022/09/24 00:01:11;;;;;;;17.00;12.02;;;;;;;13.77;87.59;101214.44;5014738;28;20050;-86
2022/09/24 00:03:38;;;;;;;17.10;12.18;;;;;;;13.81;87.67;101227.75;5015279;28;20458;-86
2022/09/24 00:06:05;;;;;;;16.63;12.25;;;;;;;13.77;87.71;101226.84;4996716;28;20097;-86
2022/09/24 00:08:33;;;;;;;15.63;11.77;;;;;;;13.76;87.50;101219.78;4997264;28;20493;-87
2022/09/24 00:11:06;;;;;;;16.75;12.65;;;;;;;13.72;87.73;101216.22;4997583;28;20032;-86
2022/09/24 00:13:33;;;;;;;17.98;11.77;;;;;;;13.70;87.72;101225.97;5014950;28;20041;-86
2022/09/24 00:16:06;;;;;;;16.35;12.23;;;;;;;13.67;87.84;101214.44;5014423;28;20040;-86
2022/09/24 00:18:32;;;;;;;16.48;12.23;;;;;;;13.69;87.61;101212.66;4996995;28;20401;-86
2022/09/24 00:20:58;;;;;;;17.98;12.52;;;;;;;13.64;88.04;101209.09;4997176;28;20454;-87
2022/09/24 00:23:25;;;;;;;17.95;12.65;;;;;;;13.59;88.20;101197.56;4997285;28;20034;-86
2022/09/24 00:28:35;;;;;;;16.77;13.02;;;;;;;13.65;87.85;101210.88;5000786;28;20056;-87
2022/09/24 00:31:06;;;;;;;16.83;12.70;;;;;;;13.61;88.07;101203.75;5015023;28;20365;-86
2022/09/24 00:33:33;;;;;;;18.65;12.57;;;;;;;13.61;87.93;101209.97;5014613;28;20445;-87
2022/09/24 00:36:03;;;;;;;19.58;12.70;;;;;;;13.57;88.02;101200.19;5014198;28;20484;-86
2022/09/24 00:38:29;;;;;;;17.02;12.93;;;;;;;13.54;88.26;101194.91;5014369;28;20030;-86
2022/09/24 00:40:55;;;;;;;17.08;12.52;;;;;;;13.48;88.52;101192.19;5014420;28;20030;-86
2022/09/24 00:43:33;;;;;;;16.90;12.18;;;;;;;13.53;88.16;101198.41;5013484;28;20033;-86
2022/09/24 00:46:35;;;;;;;17.63;12.25;;;;;;;13.58;88.45;101196.69;5014332;28;20025;-86
2022/09/24 00:49:21;;;;;;;16.58;12.00;;;;;;;13.57;88.45;101197.53;4996911;28;20124;-88
2022/09/24 00:51:51;;;;;;;16.88;11.90;;;;;;;13.53;88.74;101193.09;4995770;28;20038;-87
2022/09/24 00:54:21;;;;;;;16.98;12.60;;;;;;;13.54;89.01;101194.91;5014218;28;20128;-86
2022/09/24 00:56:48;;;;;;;15.70;12.23;;;;;;;13.49;88.76;101184.25;4997418;28;20426;-87
2022/09/24 00:59:17;;;;;;;16.45;11.52;;;;;;;13.57;88.62;101192.25;4980530;28;20120;-87
2022/09/24 01:01:47;;;;;;;16.58;12.20;;;;;;;13.46;88.88;101168.31;5014193;28;20036;-87
2022/09/24 01:04:15;;;;;;;16.85;11.95;;;;;;;13.53;88.76;101178.09;4997174;28;20026;-86
2022/09/24 01:06:40;;;;;;;16.73;12.70;;;;;;;13.51;88.63;101166.56;4996504;28;20036;-86
2022/09/24 01:09:07;;;;;;;15.90;11.77;;;;;;;13.54;88.43;101173.66;4996825;28;20037;-86
2022/09/24 01:11:54;;;;;;;15.05;10.98;;;;;;;13.47;88.07;101162.13;4996738;28;20509;-86
2022/09/24 01:14:25;;;;;;;17.27;12.23;;;;;;;13.55;88.59;101171.88;4996222;28;20025;-87
2022/09/24 01:17:27;;;;;;;16.13;11.50;;;;;;;13.54;88.34;101165.69;4996762;28;20112;-86
2022/09/24 01:20:31;;;;;;;15.90;11.85;;;;;;;13.47;88.84;101148.84;4996752;28;20022;-86
2022/09/24 01:23:12;;;;;;;17.05;12.40;;;;;;;13.49;88.93;101162.16;4996934;28;20029;-85
2022/09/24 01:25:58;;;;;;;17.17;11.55;;;;;;;13.47;88.93;101162.13;5014322;28;20026;-86
2022/09/24 01:28:33;;;;;;;18.50;11.75;;;;;;;13.39;89.49;101149.69;5014310;28;20022;-86
2022/09/24 01:31:10;;;;;;;16.73;11.52;;;;;;;13.44;89.21;101154.13;5014288;28;20017;-86
2022/09/24 01:33:36;;;;;;;15.98;11.32;;;;;;;13.40;89.56;101149.69;5014209;28;20014;-87
2022/09/24 01:36:07;;;;;;;15.70;11.10;;;;;;;13.41;89.32;101147.94;5013547;28;20081;-86
2022/09/24 01:38:39;;;;;;;14.73;11.02;;;;;;;13.40;89.37;101141.72;4996516;28;20351;-86
2022/09/24 01:41:08;;;;;;;20.08;11.57;;;;;;;13.45;89.32;101147.97;4996508;28;20033;-86
2022/09/24 01:43:33;;;;;;;16.63;11.60;;;;;;;13.43;89.19;101147.06;4996116;28;20036;-86
2022/09/24 01:46:03;;;;;;;14.98;11.23;;;;;;;13.41;89.37;101146.19;5013307;28;20370;-86
2022/09/24 01:48:29;;;;;;;16.42;11.63;;;;;;;13.41;89.28;101138.22;5013962;28;20026;-86
2022/09/24 01:51:02;;;;;;;18.75;11.85;;;;;;;13.35;89.25;101126.66;4996788;28;20069;-86
2022/09/24 01:53:36;;;;;;;16.17;12.00;;;;;;;13.39;89.48;101134.66;5013374;28;20076;-86
2022/09/24 01:56:09;;;;;;;14.98;11.50;;;;;;;13.39;89.33;101139.06;5011784;28;20104;-86
2022/09/24 01:58:51;;;;;;;15.23;11.60;;;;;;;13.41;89.01;101132.91;5013840;28;20026;-86
2022/09/24 02:01:28;;;;;;;15.63;11.95;;;;;;;13.38;89.49;101122.28;4996270;28;20049;-85
2022/09/24 02:04:05;;;;;;;18.05;11.38;;;;;;;13.39;89.25;101125.81;5015064;28;20486;-85
2022/09/24 02:06:35;;;;;;;16.50;11.80;;;;;;;13.39;89.57;101133.78;5017809;28;20026;-86
2022/09/24 02:09:00;;;;;;;17.60;11.52;;;;;;;13.36;89.26;101124.03;5017288;28;20029;-86
2022/09/24 02:11:27;;;;;;;18.17;12.20;;;;;;;13.34;89.46;101131.09;4999498;28;20026;-85
2022/09/24 02:13:59;;;;;;;17.58;11.80;;;;;;;13.39;89.67;101131.13;5017580;28;20053;-86
2022/09/24 02:16:49;;;;;;;16.67;12.48;;;;;;;13.36;89.87;101131.09;4999472;28;20107;-85
2022/09/24 02:19:20;;;;;;;18.17;13.20;;;;;;;13.25;90.12;101115.13;4999985;28;20030;-86
2022/09/24 02:21:46;;;;;;;20.42;14.27;;;;;;;13.24;90.03;101119.56;5016729;28;20026;-85
2022/09/24 02:24:21;;;;;;;20.85;14.80;;;;;;;13.30;90.03;101124.00;5016625;28;20030;-86
2022/09/24 02:26:47;;;;;;;19.40;14.48;;;;;;;13.28;90.14;101113.41;4999309;28;20042;-86
2022/09/24 02:29:13;;;;;;;21.02;15.20;;;;;;;13.29;90.47;101119.59;4983089;28;20025;-86
2022/09/24 02:31:48;;;;;;;20.48;15.05;;;;;;;13.26;90.45;101120.44;5017074;28;20516;-85
2022/09/24 02:34:20;;;;;;;19.20;14.25;;;;;;;13.28;90.57;101120.47;5017387;28;20022;-86
2022/09/24 02:37:07;;;;;;;20.00;14.80;;;;;;;13.33;90.13;101112.53;5016679;28;20026;-86
2022/09/24 02:39:33;;;;;;;19.58;14.40;;;;;;;13.34;90.13;101109.88;5016689;28;20030;-88
2022/09/24 02:41:59;;;;;;;21.73;15.00;;;;;;;13.31;90.66;101115.16;5016940;28;20036;-86
2022/09/24 02:44:25;;;;;;;19.02;13.63;;;;;;;13.37;90.64;101115.19;5016787;28;20466;-86
2022/09/24 02:46:50;;;;;;;20.05;14.77;;;;;;;13.33;90.05;101118.72;4982790;28;20036;-86
2022/09/24 02:49:17;;;;;;;19.35;14.18;;;;;;;13.37;90.22;101114.31;4999028;28;20037;-86
2022/09/24 02:51:43;;;;;;;20.63;14.63;;;;;;;13.35;90.05;101103.66;5014824;28;20093;-86
2022/09/24 02:54:09;;;;;;;20.17;15.23;;;;;;;13.36;90.25;101105.47;4982601;28;20037;-86
2022/09/24 02:56:35;;;;;;;21.52;15.15;;;;;;;13.36;90.31;101101.91;5016241;28;20033;-86
2022/09/24 02:59:04;;;;;;;24.63;16.73;;;;;;;13.32;90.55;101101.03;5016426;28;20022;-86
2022/09/24 03:01:30;;;;;;;22.13;16.30;;;;;;;13.33;90.72;101100.13;4999695;28;20033;-86
2022/09/24 03:03:56;;;;;;;23.45;17.35;;;;;;;13.34;90.83;101109.88;4998777;28;20422;-86
2022/09/24 03:06:23;;;;;;;23.05;16.77;;;;;;;13.30;90.46;101091.28;4998129;28;20121;-86
2022/09/24 03:08:50;;;;;;;24.10;18.13;;;;;;;13.35;90.86;101102.78;5016039;28;20026;-86
2022/09/24 03:11:16;;;;;;;22.63;16.40;;;;;;;13.31;91.28;101104.53;5014689;28;20036;-87
2022/09/24 03:13:41;;;;;;;24.02;17.13;;;;;;;13.18;91.82;101086.75;5016184;28;20117;-86
2022/09/24 03:16:07;;;;;;;27.23;17.45;;;;;;;13.21;92.05;101098.28;4981479;28;20041;-86
2022/09/24 03:18:35;;;;;;;26.52;18.00;;;;;;;13.20;92.67;101107.13;4998336;28;20049;-86
2022/09/24 03:21:06;;;;;;;25.58;19.05;;;;;;;13.13;92.58;101084.09;4965981;28;20366;-86
2022/09/24 03:23:31;;;;;;;28.65;19.13;;;;;;;13.18;92.91;101098.25;5015764;28;20029;-86
2022/09/24 03:25:57;;;;;;;27.08;18.90;;;;;;;13.14;93.23;101095.59;4997942;28;20413;-86
2022/09/24 03:28:23;;;;;;;27.98;19.52;;;;;;;13.17;93.37;101090.31;5015685;28;20081;-86
2022/09/24 03:31:00;;;;;;;28.73;20.23;;;;;;;13.21;93.44;101094.75;4982116;28;20034;-85
2022/09/24 03:33:40;;;;;;;26.60;19.75;;;;;;;13.18;93.49;101081.47;4998568;28;20030;-86
2022/09/24 03:36:24;;;;;;;31.17;19.92;;;;;;;13.17;93.94;101095.63;5015509;28;20087;-86
2022/09/24 03:38:55;;;;;;;25.85;18.38;;;;;;;13.17;93.90;101090.31;5015747;28;20025;-85
2022/09/24 03:41:23;;;;;;;28.13;18.98;;;;;;;13.14;94.17;101087.63;5015604;28;20030;-85
2022/09/24 03:43:48;;;;;;;30.58;20.77;;;;;;;13.15;94.28;101089.44;4981804;28;20053;-86
2022/09/24 03:46:16;;;;;;;32.25;21.20;;;;;;;13.17;94.11;101090.31;4982035;28;20350;-88
2022/09/24 03:48:42;;;;;;;30.00;20.65;;;;;;;13.15;94.17;101081.47;5015210;28;20181;-86
2022/09/24 03:51:12;;;;;;;29.17;19.58;;;;;;;13.14;94.29;101079.66;4997749;28;20409;-85
2022/09/24 03:53:38;;;;;;;26.92;19.38;;;;;;;13.06;94.66;101066.41;5015199;28;20113;-86
2022/09/24 03:56:05;;;;;;;29.90;19.48;;;;;;;13.15;94.35;101073.50;4997774;28;20029;-85
2022/09/24 03:58:31;;;;;;;28.88;19.52;;;;;;;13.22;94.30;101080.59;4981432;28;20065;-85
2022/09/24 04:00:57;;;;;;;28.88;19.67;;;;;;;13.22;94.42;101072.63;4997558;28;20347;-86
2022/09/24 04:03:23;;;;;;;26.13;18.95;;;;;;;13.15;94.35;101063.78;4997612;28;20080;-86
2022/09/24 04:05:50;;;;;;;28.67;19.42;;;;;;;13.12;94.53;101061.09;4997318;28;20080;-86
2022/09/24 04:08:17;;;;;;;27.80;19.23;;;;;;;13.17;94.53;101066.44;4997543;28;20033;-86
2022/09/24 04:10:45;;;;;;;27.40;18.42;;;;;;;13.11;94.72;101063.75;5015155;28;20030;-85
2022/09/24 04:13:11;;;;;;;24.38;18.17;;;;;;;13.10;94.74;101067.28;4998225;28;20405;-86
2022/09/24 04:15:36;;;;;;;25.63;17.35;;;;;;;13.06;94.92;101062.84;4997338;28;20030;-87
2022/09/24 04:18:09;;;;;;;26.33;18.10;;;;;;;13.04;95.15;101060.19;4997158;28;20026;-88
2022/09/24 04:20:35;;;;;;;27.60;19.88;;;;;;;13.00;95.23;101061.06;4981539;28;20033;-87
2022/09/24 04:23:01;;;;;;;27.38;18.80;;;;;;;13.00;95.44;101056.63;4997304;28;20047;-87
2022/09/24 04:25:30;;;;;;;25.80;17.77;;;;;;;13.02;94.95;101056.66;5014406;28;20026;-86
2022/09/24 04:28:06;;;;;;;25.33;18.05;;;;;;;13.02;95.35;101059.31;5014084;28;20049;-86
2022/09/24 04:30:33;;;;;;;26.52;17.75;;;;;;;13.00;95.37;101050.44;5014867;28;20029;-85
2022/09/24 04:32:59;;;;;;;25.88;17.83;;;;;;;12.98;95.36;101047.78;4980775;28;20030;-86
2022/09/24 04:35:28;;;;;;;24.80;18.02;;;;;;;12.96;95.43;101043.34;4997274;28;20034;-87
2022/09/24 04:37:54;;;;;;;24.88;17.38;;;;;;;12.95;95.74;101049.53;4996721;28;20018;-87
2022/09/24 04:40:20;;;;;;;26.27;18.38;;;;;;;12.97;95.85;101055.72;5014993;28;20022;-86
2022/09/24 04:42:45;;;;;;;25.95;18.77;;;;;;;12.95;96.11;101054.84;5014238;28;20030;-86
2022/09/24 04:45:13;;;;;;;25.55;18.77;;;;;;;12.95;96.42;101061.03;4981517;28;20125;-86
2022/09/24 04:47:41;;;;;;;27.48;18.90;;;;;;;12.97;95.96;101058.38;5014956;28;20025;-86
2022/09/24 04:50:10;;;;;;;26.20;19.52;;;;;;;12.95;96.49;101054.84;5013950;28;20133;-86
2022/09/24 04:52:36;;;;;;;26.85;18.08;;;;;;;12.97;96.32;101061.03;5013941;28;20018;-86
2022/09/24 04:55:02;;;;;;;27.80;19.67;;;;;;;12.87;96.63;101038.88;5014468;28;20034;-85
2022/09/24 04:57:31;;;;;;;25.60;18.08;;;;;;;12.96;96.51;101052.19;4996466;28;20053;-86
2022/09/24 04:59:57;;;;;;;26.40;19.40;;;;;;;12.87;96.54;101043.31;5014194;28;20044;-87
2022/09/24 05:02:22;;;;;;;25.45;18.67;;;;;;;12.94;96.82;101063.69;4998357;28;20030;-86
2022/09/24 05:04:48;;;;;;;26.75;19.38;;;;;;;12.85;96.99;101039.75;4997147;28;20454;-86
2022/09/24 05:07:13;;;;;;;31.02;19.08;;;;;;;12.88;97.50;101059.22;4981090;28;20374;-86
2022/09/24 05:09:39;;;;;;;26.02;18.83;;;;;;;12.87;97.39;101061.88;4997387;28;20040;-86
2022/09/24 05:12:04;;;;;;;28.95;19.58;;;;;;;12.89;97.62;101063.66;4996857;28;20017;-86
2022/09/24 05:14:30;;;;;;;29.75;19.98;;;;;;;12.90;97.55;101061.91;5014257;28;20040;-87
2022/09/24 05:16:58;;;;;;;27.90;19.38;;;;;;;12.90;97.57;101057.47;5012632;28;20026;-87
2022/09/24 05:19:23;;;;;;;27.48;19.05;;;;;;;12.86;97.50;101050.38;5013610;28;20038;-87
2022/09/24 05:21:48;;;;;;;25.50;18.20;;;;;;;12.95;97.37;101060.16;5013943;28;20045;-87
2022/09/24 05:24:14;;;;;;;25.20;17.52;;;;;;;12.96;97.72;101059.25;4996610;28;20024;-87
2022/09/24 05:29:24;;;;;;;26.83;18.60;;;;;;;12.84;97.78;101067.16;4999349;28;20048;-86
2022/09/24 05:31:49;;;;;;;26.70;18.80;;;;;;;12.85;97.72;101063.63;4996426;28;20026;-86
2022/09/24 05:34:15;;;;;;;26.83;17.13;;;;;;;12.83;98.46;101063.63;4996213;28;20029;-86
2022/09/24 05:36:42;;;;;;;24.92;17.38;;;;;;;12.80;98.25;101068.91;4996201;28;20029;-86
2022/09/24 05:39:08;;;;;;;24.42;16.70;;;;;;;12.79;98.70;101067.13;5016162;28;20033;-86
2022/09/24 05:41:34;;;;;;;26.15;16.73;;;;;;;12.79;98.67;101068.03;5000868;28;20112;-87
2022/09/24 05:44:00;;;;;;;26.77;16.95;;;;;;;12.73;98.96;101059.16;5000045;28;20482;-87
2022/09/24 05:46:25;;;;;;;22.55;16.10;;;;;;;12.76;98.73;101059.16;5000079;28;20026;-86
2022/09/24 05:48:51;;;;;;;23.20;15.77;;;;;;;12.76;98.70;101067.09;4983836;28;20458;-86
2022/09/24 05:51:16;;;;;;;22.33;16.40;;;;;;;12.81;98.25;101069.81;4999837;28;20076;-87
2022/09/24 05:53:42;;;;;;;28.50;15.70;;;;;;;12.86;98.28;101076.91;4984079;28;20091;-87
2022/09/24 05:56:09;;;;;;;20.80;14.82;;;;;;;12.86;97.93;101074.25;4999740;28;20442;-87
2022/09/24 05:58:34;;;;;;;22.75;15.43;;;;;;;12.90;97.92;101076.03;5017522;28;20050;-87
2022/09/24 06:01:00;;;;;;;22.45;15.50;;;;;;;12.86;97.88;101065.41;5017052;28;20026;-87
2022/09/24 06:03:26;;;;;;;25.40;15.25;;;;;;;12.86;97.92;101078.69;5017004;28;20377;-87
2022/09/24 06:05:52;;;;;;;20.23;15.50;;;;;;;12.82;97.94;101068.94;4983511;28;20041;-88
2022/09/24 06:08:19;;;;;;;21.10;14.77;;;;;;;12.84;97.89;101069.81;4999619;28;20365;-87
2022/09/24 06:10:46;;;;;;;22.63;15.65;;;;;;;12.81;98.31;101073.34;5017111;28;20512;-87
2022/09/24 06:13:13;;;;;;;20.90;15.23;;;;;;;12.87;98.40;101085.75;5017157;28;20026;-88
2022/09/24 06:15:41;;;;;;;24.48;16.17;;;;;;;12.87;98.25;101076.03;5016785;28;20030;-88
2022/09/24 06:18:07;;;;;;;22.42;16.15;;;;;;;12.87;97.67;101080.44;5000117;28;20084;-87
2022/09/24 06:20:33;;;;;;;23.17;15.65;;;;;;;12.85;98.43;101087.47;5016219;28;20033;-87
2022/09/24 06:22:58;;;;;;;20.95;16.00;;;;;;;12.78;98.63;101087.47;4999589;28;20469;-87
2022/09/24 06:25:25;;;;;;;23.27;16.08;;;;;;;12.80;99.33;101092.75;4999381;28;20030;-87
2022/09/24 06:28:00;;;;;;;22.10;15.68;;;;;;;12.78;99.27;101086.59;4999018;28;20050;-87
2022/09/24 06:30:37;;;;;;;23.50;15.20;;;;;;;12.81;99.01;101088.38;5016703;28;20058;-87
2022/09/24 06:33:08;;;;;;;23.65;15.20;;;;;;;12.83;98.62;101092.78;5016773;28;20029;-87
2022/09/24 06:35:34;;;;;;;19.45;14.77;;;;;;;12.86;98.73;101100.78;4999424;28;20018;-87
2022/09/24 06:38:00;;;;;;;21.38;15.38;;;;;;;12.81;98.74;101085.72;5016849;28;20028;-87
2022/09/24 06:40:26;;;;;;;21.35;15.65;;;;;;;12.84;99.05;101093.69;5016861;28;20025;-87
2022/09/24 06:42:52;;;;;;;23.35;15.68;;;;;;;12.83;99.02;101098.09;4998965;28;20104;-86
2022/09/24 06:45:19;;;;;;;21.85;16.02;;;;;;;12.82;99.14;101101.63;4999104;28;20481;-86
2022/09/24 06:47:52;;;;;;;22.05;15.73;;;;;;;12.87;99.37;101099.00;4998856;28;20034;-86
2022/09/24 06:50:17;;;;;;;23.38;16.13;;;;;;;12.87;99.33;101097.25;4998097;28;20026;-86
2022/09/24 06:52:43;;;;;;;24.83;16.38;;;;;;;12.89;99.38;101108.75;4982494;28;20382;-86
2022/09/24 06:55:08;;;;;;;23.70;15.88;;;;;;;12.87;98.83;101102.53;4998864;28;20026;-86
2022/09/24 06:57:34;;;;;;;22.50;16.10;;;;;;;12.87;98.71;101101.66;5016444;28;20030;-86
2022/09/24 06:59:59;;;;;;;24.98;16.50;;;;;;;12.89;98.81;101110.50;4998440;28;20057;-86
2022/09/24 07:02:24;;;;;;;23.23;16.50;;;;;;;12.90;99.21;101110.53;4998854;28;20030;-87
2022/09/24 07:04:50;;;;;;;22.70;15.65;;;;;;;12.87;98.86;101096.34;5015738;28;20032;-86
2022/09/24 07:07:33;;;;;;;22.73;16.05;;;;;;;12.97;98.86;101116.72;4999241;28;20041;-85
2022/09/24 07:10:06;;;;;;;23.80;16.60;;;;;;;12.89;98.78;101103.44;5001243;28;20037;-86
2022/09/24 07:12:33;;;;;;;27.83;16.60;;;;;;;12.97;98.82;101116.72;5016025;28;20030;-86
2022/09/24 07:15:02;;;;;;;22.70;16.20;;;;;;;12.97;98.91;101114.97;4999741;28;20430;-86
2022/09/24 07:17:28;;;;;;;24.38;16.90;;;;;;;12.95;98.93;101118.50;4982260;28;20087;-87
2022/09/24 07:19:53;;;;;;;24.02;16.35;;;;;;;12.97;99.33;101124.69;4982320;28;20046;-86
2022/09/24 07:22:20;;;;;;;22.92;16.27;;;;;;;13.02;98.94;101126.50;5015786;28;20072;-87
2022/09/24 07:24:45;;;;;;;22.52;15.88;;;;;;;13.02;98.69;101122.97;4998382;28;20030;-86
2022/09/24 07:27:12;;;;;;;25.23;17.20;;;;;;;13.04;98.40;101130.03;4965578;28;20097;-87
2022/09/24 07:29:37;;;;;;;23.58;16.02;;;;;;;13.07;98.58;101121.22;5015821;28;20025;-88
2022/09/24 07:32:03;;;;;;;20.63;15.50;;;;;;;13.07;98.66;101117.69;4998132;28;20037;-86
2022/09/24 07:34:29;;;;;;;21.60;16.25;;;;;;;13.08;98.43;101125.66;4997851;28;20351;-88
2022/09/24 07:36:55;;;;;;;23.98;16.25;;;;;;;13.10;98.17;101129.19;5015568;28;20029;-89
2022/09/24 07:39:22;;;;;;;21.50;15.48;;;;;;;13.10;98.18;101130.94;4997748;28;20058;-87
2022/09/24 07:41:47;;;;;;;25.40;16.65;;;;;;;12.97;98.23;101120.25;4998129;28;20022;-88
2022/09/24 07:44:13;;;;;;;22.25;15.98;;;;;;;13.05;98.68;101136.22;4998286;28;20369;-88
2022/09/24 07:46:46;;;;;;;23.58;16.38;;;;;;;13.00;99.04;101132.69;4982751;28;20387;-89
2022/09/24 07:49:11;;;;;;;21.35;16.00;;;;;;;12.97;99.02;101130.88;4981951;28;20038;-90
2022/09/24 07:51:39;;;;;;;24.10;16.58;;;;;;;12.91;98.60;101122.00;4997681;28;20026;-88
2022/09/24 07:54:05;;;;;;;24.83;17.23;;;;;;;12.90;99.46;101123.78;4997327;28;20117;-88
2022/09/24 07:56:31;;;;;;;23.40;16.58;;;;;;;12.89;99.34;101134.38;4997460;28;20065;-89
2022/09/24 07:58:57;;;;;;;23.60;16.63;;;;;;;12.94;99.67;101146.81;4997872;28;20355;-89
2022/09/24 08:01:23;;;;;;;23.88;16.83;;;;;;;12.98;99.70;101153.00;5014553;28;20037;-83
2022/09/24 08:03:51;;;;;;;25.30;17.27;;;;;;;13.00;99.68;101151.25;5015552;28;20036;-84
2022/09/24 08:06:17;;;;;;;25.08;17.08;;;;;;;13.03;99.74;101148.63;5015156;28;20072;-85
2022/09/24 08:08:43;;;;;;;21.63;16.90;;;;;;;13.07;99.63;101153.06;5015262;28;20037;-84
2022/09/24 08:11:15;;;;;;;23.58;16.65;;;;;;;13.09;99.12;101151.28;5015449;28;20031;-83
2022/09/24 08:13:41;;;;;;;22.77;16.58;;;;;;;13.07;98.91;101153.06;5015086;28;20068;-83
2022/09/24 08:16:06;;;;;;;23.83;16.67;;;;;;;13.12;98.75;101164.59;5015061;28;20030;-84
2022/09/24 08:18:32;;;;;;;24.80;16.23;;;;;;;13.14;98.48;101157.50;4997032;28;20033;-84
2022/09/24 08:21:03;;;;;;;21.50;16.10;;;;;;;13.15;98.71;101161.06;5014814;28;20044;-84
2022/09/24 08:23:31;;;;;;;24.30;16.85;;;;;;;13.12;98.74;101150.44;4998116;28;20017;-84
2022/09/24 08:25:56;;;;;;;24.63;16.55;;;;;;;13.15;98.76;101169.91;4981325;28;20034;-84
2022/09/24 08:28:22;;;;;;;23.10;16.92;;;;;;;13.17;98.97;101165.47;5014687;28;20033;-84
2022/09/24 08:30:47;;;;;;;23.27;17.15;;;;;;;13.17;98.58;101170.78;4997050;28;20108;-84
2022/09/24 08:33:14;;;;;;;26.63;17.55;;;;;;;13.12;98.57;101155.75;4997345;28;20369;-85
2022/09/24 08:35:39;;;;;;;26.83;16.90;;;;;;;13.20;98.57;101167.28;5014680;28;20358;-85
2022/09/24 08:38:08;;;;;;;24.50;17.83;;;;;;;13.08;99.07;101154.81;4997294;28;20022;-88
2022/09/24 08:40:43;;;;;;;24.27;17.85;;;;;;;13.18;99.03;101172.56;4996735;28;20026;-89
2022/09/24 08:43:45;;;;;;;23.45;17.65;;;;;;;13.19;99.48;101170.78;5014437;28;20037;-88
2022/09/24 08:49:19;;;;;;;24.40;17.00;;;;;;;13.18;98.42;101174.31;5014956;28;20088;-89
2022/09/24 08:52:02;;;;;;;23.63;16.52;;;;;;;13.14;98.45;101167.22;5013701;28;20021;-89
2022/09/24 08:54:29;;;;;;;25.73;17.20;;;;;;;13.19;98.54;101176.09;4996915;28;20454;-89
2022/09/24 08:56:56;;;;;;;26.52;18.23;;;;;;;13.23;99.06;101175.28;5014165;28;20068;-88
2022/09/24 08:59:36;;;;;;;28.10;17.80;;;;;;;13.22;99.00;101171.72;4980328;28;20033;-89
2022/09/24 09:02:42;;;;;;;24.02;17.45;;;;;;;13.28;99.04;101189.47;5013928;28;20474;-89
2022/09/24 09:05:07;;;;;;;28.05;18.27;;;;;;;13.26;98.75;101189.44;5012659;28;20029;-89
2022/09/24 09:07:59;;;;;;;25.90;18.42;;;;;;;13.27;99.42;101188.59;5014235;28;20037;-89
2022/09/24 09:10:56;;;;;;;25.47;17.87;;;;;;;13.21;99.25;101177.00;4988233;28;20107;-89
2022/09/24 09:13:57;;;;;;;28.60;18.45;;;;;;;13.27;99.69;101187.69;4996009;28;20268;-89
2022/09/24 09:16:46;;;;;;;23.52;17.38;;;;;;;13.31;99.75;101191.25;4972503;28;20181;-89
2022/09/24 09:19:16;;;;;;;26.75;18.38;;;;;;;13.27;99.43;101179.72;4982757;28;20077;-89
2022/09/24 09:21:51;;;;;;;27.50;17.63;;;;;;;13.33;99.37;101178.88;5014001;28;20018;-89
2022/09/24 09:24:24;;;;;;;26.27;18.58;;;;;;;13.33;98.40;101190.38;4996455;28;20022;-89
2022/09/24 09:26:58;;;;;;;26.58;18.63;;;;;;;13.30;98.81;101186.81;4983334;28;20047;-89
2022/09/24 09:29:26;;;;;;;26.83;18.90;;;;;;;13.25;99.03;101179.72;4974875;28;20455;-89
2022/09/24 09:32:01;;;;;;;26.75;18.33;;;;;;;13.37;99.15;101197.47;4989886;28;20030;-89
2022/09/24 09:34:44;;;;;;;29.02;19.30;;;;;;;13.39;98.74;101194.81;4973864;28;20030;-88
2022/09/24 09:37:23;;;;;;;23.98;17.70;;;;;;;13.43;99.14;101199.25;4974674;28;20035;-88
2022/09/24 09:40:19;;;;;;;24.70;17.63;;;;;;;13.44;98.74;101195.72;4974251;28;20106;-89
2022/09/24 09:42:46;;;;;;;26.75;18.00;;;;;;;13.39;98.63;101177.13;4973303;28;20065;-89
2022/09/24 09:45:24;;;;;;;25.63;18.77;;;;;;;13.51;99.14;101197.53;4973338;28;20462;-88
2022/09/24 09:47:54;;;;;;;31.05;17.88;;;;;;;13.46;98.52;101180.72;4973860;28;20076;-88
2022/09/24 09:50:35;;;;;;;28.50;19.48;;;;;;;13.53;98.52;101206.38;4973356;28;20033;-89
2022/09/24 09:53:04;;;;;;;28.13;17.58;;;;;;;13.43;98.34;101178.03;4974075;28;20467;-89
2022/09/24 09:55:47;;;;;;;28.58;18.48;;;;;;;13.46;99.09;101180.72;4957695;28;20481;-89
2022/09/24 09:58:21;;;;;;;25.15;17.02;;;;;;;13.45;98.18;101184.25;4973451;28;20019;-88
2022/09/24 10:00:48;;;;;;;26.58;18.15;;;;;;;13.45;98.38;101182.47;4974396;28;20431;-88
2022/09/24 10:03:47;;;;;;;23.23;17.65;;;;;;;13.57;98.94;101200.19;4975143;28;20034;-88
2022/09/24 10:06:23;;;;;;;26.40;17.00;;;;;;;13.56;98.53;101186.94;4973622;28;20027;-88
2022/09/24 10:08:48;;;;;;;25.25;16.30;;;;;;;13.55;97.92;101186.03;4974943;28;20034;-88
2022/09/24 10:11:16;;;;;;;22.02;16.20;;;;;;;13.56;97.96;101185.16;4974275;28;20038;-89
2022/09/24 10:13:41;;;;;;;24.27;16.52;;;;;;;13.56;97.37;101184.28;4973292;28;20058;-88
2022/09/24 10:16:14;;;;;;;27.40;16.55;;;;;;;13.57;97.53;101181.63;4989403;28;20058;-89
2022/09/24 10:18:51;;;;;;;25.45;17.70;;;;;;;13.61;98.16;101178.09;4974642;28;20027;-88
2022/09/24 10:21:39;;;;;;;24.23;16.88;;;;;;;13.61;97.49;101174.56;4974810;28;20019;-88
2022/09/24 10:24:15;;;;;;;24.73;16.65;;;;;;;13.69;97.86;101180.78;4975090;28;20023;-88
2022/09/24 10:26:45;;;;;;;22.27;16.42;;;;;;;13.76;97.68;101186.13;4977565;28;20070;-89
2022/09/24 10:32:17;;;;;;;22.38;16.85;;;;;;;13.82;96.55;101181.72;4978395;28;20045;-88
2022/09/24 10:34:57;;;;;;;22.10;16.45;;;;;;;13.79;95.69;101179.94;4977798;28;20113;-88
2022/09/24 10:37:22;;;;;;;23.38;16.80;;;;;;;13.86;96.39;101184.38;4977409;28;20031;-88
2022/09/24 10:40:10;;;;;;;21.83;15.80;;;;;;;14.00;96.35;101189.72;4992815;28;20033;-89
2022/09/24 10:42:36;;;;;;;21.35;16.00;;;;;;;14.05;95.75;101195.94;4976199;28;20015;-88
2022/09/24 10:45:03;;;;;;;24.83;17.02;;;;;;;14.01;95.88;101180.88;4992688;28;20046;-89
2022/09/24 10:47:51;;;;;;;26.33;17.58;;;;;;;14.14;95.61;101195.97;4977160;28;20023;-88
2022/09/24 10:50:43;;;;;;;22.80;16.15;;;;;;;14.08;95.33;101189.75;4992791;28;20068;-88
2022/09/24 10:53:21;;;;;;;21.20;16.23;;;;;;;14.21;95.48;101204.81;4961287;28;20027;-88
2022/09/24 10:56:02;;;;;;;22.88;15.90;;;;;;;14.18;94.61;101204.84;4976388;28;20147;-88
2022/09/24 10:58:46;;;;;;;23.55;16.92;;;;;;;14.18;94.39;101203.06;4976999;28;20129;-88
2022/09/24 11:01:17;;;;;;;24.27;16.63;;;;;;;14.20;95.00;101205.72;4992475;28;20031;-88
2022/09/24 11:03:52;;;;;;;21.65;15.82;;;;;;;14.20;93.82;101203.94;4977459;28;20030;-88
2022/09/24 11:06:39;;;;;;;22.08;17.63;;;;;;;14.21;93.81;101208.34;4991817;28;20368;-88
2022/09/24 11:09:14;;;;;;;24.73;17.10;;;;;;;14.20;93.67;101203.94;4975725;28;20078;-87
2022/09/24 11:12:04;;;;;;;24.02;17.52;;;;;;;14.10;93.06;101195.97;4977240;28;20022;-88
2022/09/24 11:14:46;;;;;;;22.38;16.20;;;;;;;14.12;93.24;101205.69;4975521;28;20039;-88
2022/09/24 11:17:31;;;;;;;23.95;17.40;;;;;;;14.20;94.15;101209.25;4975911;28;20026;-88
2022/09/24 11:20:22;;;;;;;24.80;17.67;;;;;;;14.28;94.65;101217.25;4976902;28;20034;-88
2022/09/24 11:23:25;;;;;;;22.25;16.52;;;;;;;14.33;94.03;101225.22;4977219;28;20102;-87
2022/09/24 11:26:06;;;;;;;22.58;16.45;;;;;;;14.39;93.46;101222.56;4975638;28;20018;-88
2022/09/24 11:28:41;;;;;;;21.55;15.93;;;;;;;14.40;92.60;101219.03;4975754;28;20129;-87
2022/09/24 11:31:17;;;;;;;21.42;14.60;;;;;;;14.42;91.70;101220.78;4976603;28;20084;-88
2022/09/24 11:33:59;;;;;;;22.33;15.40;;;;;;;14.46;91.95;101221.69;4976552;28;20497;-88
2022/09/24 11:36:55;;;;;;;20.70;15.77;;;;;;;14.55;91.91;101223.50;4976470;28;20027;-88
2022/09/24 11:39:29;;;;;;;25.77;15.65;;;;;;;14.61;92.18;101220.84;4976458;28;20367;-88